Cincinnati, OH

8:35 PM EDT on September 19, 2014 (GMT -0400)
Clermont County, Batavia | Change Station
CLOSE
Current Station
Airport
Location: Clermont County, Batavia,
Elevation: 840 ft
Nearby Weather Stations

Elev 840 ft 39.08 °N, 84.21 °W | Updated 21 minutes ago

Clear
Clear
66 °F
Feels Like 66 °F
N
0
Wind Variable Wind from North

Today
High -- | Low -- °F
--% Chance of Precip.
Yesterday
High -- | Low -- °F
Precip. -- in
7:22 AM 7:39 PM
Waning Crescent, 16% visible
Pressure 30.08 in
Visibility 10.0 miles
Clouds Clear
Dew Point 54 °F
Humidity 64%
Rainfall 0.00 in
Snow Depth Not available.
UV 0 out of 12
Pollen 4.40 out of 12
Ozone Good
PM2.5 Good
Flu Activity Not available.
METAR KI69 200014Z AUTO 00000KT 10SM CLR 19/12 A3008 RMK AO1

More Conditions Fewer Conditions

Pressure 30.08 in
Visibility 10.0 miles
Clouds Clear
Dew Point 54 °F
Humidity 64%
Rainfall 0.00 in
Snow Depth Not available.
UV 0 out of 12
Pollen 4.40 out of 12
Ozone Good
PM2.5 Good
Flu Activity Not available.
METAR KI69 200014Z AUTO 00000KT 10SM CLR 19/12 A3008 RMK AO1

More Conditions Fewer Conditions

10-Day Weather Forecast

Almanac

Astronomy

Sep. 19, 2014 Rise Set
Actual Time 7:22 AM EDT 7:39 PM EDT
Civil Twilight 6:56 AM EDT 8:06 PM EDT
Nautical Twilight 6:24 AM EDT 8:37 PM EDT
Astronomical Twilight 5:52 AM EDT 9:09 PM EDT
Moon 3:08 AM EDT (9/19) 5:06 PM EDT (9/19)
Length of Visible Light 13h 10m
Length of Day
12h 16m
Tomorrow will be 2m 31s shorter.
Waning Crescent, 16% of the Moon is Illuminated
Today
Waning Crescent
Sep 24
New
Oct 1
First Quarter
Oct 8
Full
Oct 15
Last Quarter

Today's Extremes

State Highs State Lows

Community

WunderPhotos

Upload Photos

1,754,744 photos uploaded!

WunderBlogs® & News

Nearby

Air Quality

  Air Quality AQ Index Pollutant
Yesterday Good
PM10
Yesterday Good
OZONE
Current Good
PM2.5
Current Good
OZONE
Friday Moderate
PM2.5
Friday Good
OZONE
Saturday Moderate
PM2.5
Saturday Good
OZONE
Sunday Good
PM2.5
Sunday Good
OZONE
Monday Good
PM2.5
Monday Good
OZONE

Snow Depth

Station Depth Elevation
No new snow has been reported.

Earthquake Activity

City Distance Mag. Time & Date
No recent earthquake activity has been reported nearby.
Minimum magnitude displayed is 2.5.

Coastal Water Temperatures

Place Temperature
No Stations Reporting

Nearby Weather Stations